Time;durP1;ratioP1;P1;durP2;ratioP2;P2;SDS_P1;SDS_P2;PMS_P1;PMS_P2;Temp;Humidity;BMP_temperature;BMP_pressure;BME280_temperature;BME280_humidity;BME280_pressure;Samples;Min_cycle;Max_cycle;Signal;HPM_P1;HPM_P2
2022/12/12 00:02:15;;;;;;;32.90;16.25;;;1.30;99.90;;;;;;5054865;28;20102;-67
2022/12/12 00:04:41;;;;;;;40.47;16.45;;;1.50;99.90;;;;;;5054948;28;20090;-67
2022/12/12 00:07:06;;;;;;;33.05;16.33;;;1.30;99.90;;;;;;5055246;28;20048;-67
2022/12/12 00:09:32;;;;;;;34.65;16.60;;;1.60;99.90;;;;;;5055239;28;20043;-67
2022/12/12 00:11:57;;;;;;;37.00;16.95;;;1.30;99.90;;;;;;5054938;28;20116;-67
2022/12/12 00:14:23;;;;;;;34.67;16.42;;;1.50;99.90;;;;;;5036626;28;20029;-67
2022/12/12 00:16:48;;;;;;;40.05;18.92;;;1.50;99.90;;;;;;5037116;28;20036;-67
2022/12/12 00:19:14;;;;;;;38.58;17.80;;;1.40;99.90;;;;;;5055244;28;20064;-67
2022/12/12 00:21:39;;;;;;;36.55;16.25;;;1.60;99.90;;;;;;5055036;28;20056;-67
2022/12/12 00:24:06;;;;;;;40.05;18.83;;;1.30;99.90;;;;;;5036743;28;20048;-67
2022/12/12 00:26:33;;;;;;;40.78;17.15;;;1.60;99.90;;;;;;5054571;28;20037;-68
2022/12/12 00:29:00;;;;;;;35.80;18.27;;;1.60;99.90;;;;;;5054534;28;20091;-67
2022/12/12 00:31:26;;;;;;;42.17;20.27;;;1.40;99.90;;;;;;5055195;28;20130;-67
2022/12/12 00:33:52;;;;;;;38.00;18.63;;;1.30;99.90;;;;;;5055760;28;20052;-67
2022/12/12 00:36:21;;;;;;;36.20;17.27;;;1.30;99.90;;;;;;5055543;28;20525;-68
2022/12/12 00:38:47;;;;;;;34.53;16.10;;;1.30;99.90;;;;;;5038201;28;20094;-67
2022/12/12 00:41:14;;;;;;;36.80;18.67;;;1.30;99.90;;;;;;5054656;28;20041;-67
2022/12/12 00:43:40;;;;;;;37.92;17.80;;;1.50;99.90;;;;;;5019811;28;20048;-67
2022/12/12 00:46:06;;;;;;;38.95;18.85;;;1.60;99.90;;;;;;5036457;28;20045;-67
2022/12/12 00:48:32;;;;;;;36.05;16.98;;;1.50;99.90;;;;;;5054580;28;20429;-67
2022/12/12 00:51:08;;;;;;;35.50;19.33;;;1.40;99.90;;;;;;5054561;28;20041;-67
2022/12/12 00:53:36;;;;;;;34.58;16.88;;;1.50;99.90;;;;;;5054022;28;20045;-67
2022/12/12 00:56:01;;;;;;;39.35;16.88;;;1.30;99.90;;;;;;5054193;28;20043;-67
2022/12/12 00:58:27;;;;;;;36.83;18.15;;;1.60;99.90;;;;;;5036362;28;20045;-67
2022/12/12 01:00:53;;;;;;;35.25;17.80;;;1.60;99.90;;;;;;5054320;28;20040;-67
2022/12/12 01:03:19;;;;;;;35.25;16.48;;;1.60;99.90;;;;;;5036252;28;20041;-67
2022/12/12 01:05:45;;;;;;;37.58;17.48;;;1.60;99.90;;;;;;5054238;28;20052;-68
2022/12/12 01:08:10;;;;;;;35.75;17.45;;;1.60;99.90;;;;;;5053417;28;20037;-67
2022/12/12 01:10:36;;;;;;;39.50;18.45;;;1.60;99.90;;;;;;5053893;28;20037;-67
2022/12/12 01:13:01;;;;;;;31.13;16.63;;;1.50;99.90;;;;;;5035837;28;20047;-67
2022/12/12 01:15:27;;;;;;;35.38;17.90;;;1.50;99.90;;;;;;5054001;28;20033;-67
2022/12/12 01:17:52;;;;;;;37.97;17.25;;;1.40;99.90;;;;;;5036015;28;20384;-67
2022/12/12 01:20:25;;;;;;;35.22;17.75;;;1.60;99.90;;;;;;5054021;28;20514;-67
2022/12/12 01:22:51;;;;;;;35.30;19.08;;;1.50;99.90;;;;;;5053456;28;20037;-67
2022/12/12 01:25:17;;;;;;;38.15;19.38;;;1.40;99.90;;;;;;5053610;28;20082;-67
2022/12/12 01:27:44;;;;;;;35.67;17.85;;;1.60;99.90;;;;;;5053694;28;20037;-67
2022/12/12 01:30:15;;;;;;;34.25;16.85;;;1.40;99.90;;;;;;5053557;28;20052;-67
2022/12/12 01:32:41;;;;;;;36.90;16.73;;;1.50;99.90;;;;;;5053436;28;20090;-67
2022/12/12 01:35:07;;;;;;;37.25;17.58;;;1.50;99.90;;;;;;5053429;28;20044;-67
2022/12/12 01:37:37;;;;;;;36.80;16.83;;;1.40;99.90;;;;;;5053693;28;20052;-67
2022/12/12 01:40:05;;;;;;;38.38;17.33;;;1.50;99.90;;;;;;5053365;28;20044;-67
2022/12/12 01:42:32;;;;;;;33.80;17.48;;;1.40;99.90;;;;;;5049183;28;20051;-67
2022/12/12 01:44:57;;;;;;;31.42;16.17;;;1.60;99.90;;;;;;5053427;28;20064;-67
2022/12/12 01:47:24;;;;;;;35.20;16.73;;;1.60;99.90;;;;;;5053286;28;20487;-67
2022/12/12 01:50:02;;;;;;;33.58;16.92;;;1.40;99.90;;;;;;5035366;28;20049;-67
2022/12/12 01:52:33;;;;;;;34.17;17.23;;;1.40;99.90;;;;;;5053013;28;20049;-68
2022/12/12 01:55:04;;;;;;;33.25;17.27;;;1.60;99.90;;;;;;5053415;28;20067;-67
2022/12/12 01:57:35;;;;;;;35.67;17.45;;;1.40;99.90;;;;;;5053352;28;20060;-67
2022/12/12 02:00:04;;;;;;;35.95;17.88;;;1.40;99.90;;;;;;5053028;28;20488;-68
2022/12/12 02:02:29;;;;;;;34.13;16.98;;;1.40;99.90;;;;;;5052725;28;20044;-67
2022/12/12 02:04:56;;;;;;;35.70;17.15;;;1.40;99.90;;;;;;5052868;28;20048;-67
2022/12/12 02:07:21;;;;;;;35.22;18.08;;;1.40;99.90;;;;;;5052903;28;20037;-67
2022/12/12 02:09:49;;;;;;;34.55;16.10;;;1.50;99.90;;;;;;5052907;28;20044;-67
2022/12/12 02:12:15;;;;;;;33.53;17.08;;;1.30;99.90;;;;;;5052973;28;20036;-67
2022/12/12 02:14:45;;;;;;;33.78;16.70;;;1.50;99.90;;;;;;5052297;28;20053;-67
2022/12/12 02:17:39;;;;;;;35.45;16.83;;;1.30;99.90;;;;;;5052896;28;20049;-67
2022/12/12 02:20:38;;;;;;;30.63;15.63;;;1.50;99.90;;;;;;5045420;28;20142;-67
2022/12/12 02:23:22;;;;;;;31.50;17.08;;;1.50;99.90;;;;;;5034117;28;20096;-67
2022/12/12 02:26:09;;;;;;;35.28;15.63;;;1.50;99.90;;;;;;5034356;28;20040;-67
2022/12/12 02:29:06;;;;;;;31.08;15.20;;;1.40;99.90;;;;;;5034662;28;20417;-67
2022/12/12 02:31:39;;;;;;;31.95;15.52;;;1.50;99.90;;;;;;5034720;28;20052;-67
2022/12/12 02:34:44;;;;;;;29.38;16.45;;;1.40;99.90;;;;;;5034506;28;20091;-68
2022/12/12 02:37:40;;;;;;;30.25;16.48;;;1.40;99.90;;;;;;5051957;28;20110;-67
2022/12/12 02:40:14;;;;;;;29.65;15.30;;;1.60;99.90;;;;;;5052376;28;20443;-67
2022/12/12 02:42:48;;;;;;;31.40;16.77;;;1.50;99.90;;;;;;5051940;28;20446;-67
2022/12/12 02:45:39;;;;;;;35.15;17.45;;;1.60;99.90;;;;;;5052163;28;20483;-68
2022/12/12 02:48:47;;;;;;;29.85;15.23;;;1.30;99.90;;;;;;5052049;28;20510;-67
2022/12/12 02:51:14;;;;;;;36.47;16.23;;;1.40;99.90;;;;;;5001662;28;20104;-67
2022/12/12 02:53:40;;;;;;;31.20;15.70;;;1.50;99.90;;;;;;5033885;28;20041;-67
2022/12/12 02:56:43;;;;;;;32.47;16.40;;;1.50;99.90;;;;;;5033905;28;20060;-68
2022/12/12 02:59:16;;;;;;;31.90;16.33;;;1.30;99.90;;;;;;5051880;28;20045;-67
2022/12/12 03:01:56;;;;;;;31.77;18.17;;;1.50;99.90;;;;;;5052179;28;20049;-67
2022/12/12 03:08:02;;;;;;;30.02;16.33;;;1.30;99.90;;;;;;5051767;28;20073;-67
2022/12/12 03:10:45;;;;;;;34.20;16.20;;;1.50;99.90;;;;;;5051796;28;20133;-67
2022/12/12 03:13:41;;;;;;;32.30;17.23;;;1.50;99.90;;;;;;5033418;28;20080;-68
2022/12/12 03:16:25;;;;;;;29.38;15.40;;;1.60;99.90;;;;;;5051507;28;20711;-68
2022/12/12 03:19:17;;;;;;;31.23;15.20;;;1.40;99.90;;;;;;5033743;28;20067;-68
2022/12/12 03:22:20;;;;;;;29.83;14.95;;;1.40;99.90;;;;;;5033554;28;20049;-67
2022/12/12 03:24:56;;;;;;;33.25;16.65;;;1.50;99.90;;;;;;5006833;28;20049;-67
2022/12/12 03:27:21;;;;;;;33.65;15.85;;;1.50;99.90;;;;;;5051615;28;20086;-67
2022/12/12 03:29:53;;;;;;;30.83;16.05;;;1.50;99.90;;;;;;5051472;28;20037;-68
2022/12/12 03:32:25;;;;;;;31.27;15.32;;;1.50;99.90;;;;;;5016696;28;20087;-68
2022/12/12 03:35:05;;;;;;;30.88;16.33;;;1.40;99.90;;;;;;5051251;28;20047;-67
2022/12/12 03:37:37;;;;;;;31.38;16.15;;;1.30;99.90;;;;;;5033422;28;20033;-67
2022/12/12 03:40:11;;;;;;;34.67;16.80;;;1.20;99.90;;;;;;5033300;28;20087;-67
2022/12/12 03:42:53;;;;;;;31.77;17.88;;;1.20;99.90;;;;;;5033347;28;20053;-67
2022/12/12 03:45:46;;;;;;;27.80;15.82;;;1.40;99.90;;;;;;5033309;28;20045;-67
2022/12/12 03:48:28;;;;;;;30.35;15.52;;;1.40;99.90;;;;;;5051381;28;20596;-67
2022/12/12 03:51:00;;;;;;;30.85;15.57;;;1.30;99.90;;;;;;5033607;28;20095;-68
2022/12/12 03:53:39;;;;;;;31.75;15.30;;;1.50;99.90;;;;;;5050781;28;20115;-67
2022/12/12 03:56:33;;;;;;;30.83;16.20;;;1.50;99.90;;;;;;5051345;28;20070;-67
2022/12/12 03:59:18;;;;;;;31.48;16.73;;;1.40;99.90;;;;;;5016893;28;20045;-67
2022/12/12 04:01:54;;;;;;;35.63;16.70;;;1.30;99.90;;;;;;5050950;28;20033;-67
2022/12/12 04:04:37;;;;;;;35.25;16.20;;;1.30;99.90;;;;;;5033030;28;20044;-67
2022/12/12 04:07:26;;;;;;;28.63;15.20;;;1.30;99.90;;;;;;5051227;28;20079;-67
2022/12/12 04:12:58;;;;;;;34.38;16.95;;;1.20;99.90;;;;;;5051037;28;20446;-67
2022/12/12 04:15:27;;;;;;;29.58;15.15;;;1.20;99.90;;;;;;5033413;28;20509;-68
2022/12/12 04:17:55;;;;;;;31.08;16.63;;;1.30;99.90;;;;;;5051047;28;20041;-67
2022/12/12 04:23:49;;;;;;;29.80;15.27;;;1.40;99.90;;;;;;5050815;28;20044;-67
2022/12/12 04:26:54;;;;;;;31.45;15.48;;;1.20;99.90;;;;;;5073186;22;20045;-67
2022/12/12 04:29:47;;;;;;;29.48;14.85;;;1.30;99.90;;;;;;5051372;28;20064;-67
2022/12/12 04:32:25;;;;;;;31.08;15.57;;;1.30;99.90;;;;;;5032994;28;20118;-67
2022/12/12 04:34:56;;;;;;;34.90;16.05;;;1.30;99.90;;;;;;5050946;28;20048;-67
2022/12/12 04:37:27;;;;;;;28.98;14.27;;;1.50;99.90;;;;;;5050637;28;20041;-67
2022/12/12 04:39:56;;;;;;;29.67;14.30;;;1.40;99.90;;;;;;5033920;28;20045;-67
2022/12/12 04:42:25;;;;;;;28.23;15.68;;;1.50;99.90;;;;;;5053037;28;20037;-66
2022/12/12 04:44:53;;;;;;;28.80;14.15;;;1.40;99.90;;;;;;5037873;28;20406;-67
2022/12/12 04:47:20;;;;;;;32.05;16.13;;;1.60;99.90;;;;;;5055257;28;20041;-67
2022/12/12 04:49:50;;;;;;;32.80;16.17;;;1.40;99.90;;;;;;5054693;28;20498;-67
2022/12/12 04:52:19;;;;;;;27.20;14.23;;;1.40;99.90;;;;;;5054901;28;20045;-67
2022/12/12 04:54:53;;;;;;;27.98;14.30;;;1.30;99.90;;;;;;5054747;28;20086;-67
2022/12/12 04:57:25;;;;;;;32.38;16.77;;;1.50;99.90;;;;;;5054652;28;20095;-67
2022/12/12 04:59:51;;;;;;;28.60;16.35;;;1.40;99.90;;;;;;5054690;28;20068;-67
2022/12/12 05:02:32;;;;;;;31.63;14.48;;;1.50;99.90;;;;;;5038147;28;20371;-67
2022/12/12 05:05:01;;;;;;;30.08;16.33;;;1.40;99.90;;;;;;5036592;28;20094;-67
2022/12/12 05:07:35;;;;;;;32.30;15.75;;;1.40;99.90;;;;;;5036484;28;20036;-66
2022/12/12 05:10:01;;;;;;;28.20;14.70;;;1.30;99.90;;;;;;5054327;28;20076;-67
2022/12/12 05:12:27;;;;;;;31.85;15.27;;;1.30;99.90;;;;;;5053672;28;20376;-67
2022/12/12 05:14:52;;;;;;;32.97;16.38;;;1.50;99.90;;;;;;5053723;28;20047;-67
2022/12/12 05:17:26;;;;;;;31.10;15.40;;;1.40;99.90;;;;;;5019099;28;20047;-67
2022/12/12 05:19:51;;;;;;;28.13;14.63;;;1.50;99.90;;;;;;5036126;28;20044;-68
2022/12/12 05:22:17;;;;;;;25.27;13.85;;;1.50;99.90;;;;;;5053783;28;20039;-66
2022/12/12 05:24:42;;;;;;;27.08;14.38;;;1.40;99.90;;;;;;5053649;28;20043;-67
2022/12/12 05:27:11;;;;;;;27.23;15.13;;;1.40;99.90;;;;;;5035848;28;20037;-68
2022/12/12 05:29:37;;;;;;;28.90;15.93;;;1.40;99.90;;;;;;5035939;28;20041;-67
2022/12/12 05:32:03;;;;;;;27.58;14.57;;;1.50;99.90;;;;;;5056932;28;20037;-66
2022/12/12 05:34:28;;;;;;;25.75;14.73;;;1.40;99.90;;;;;;5072666;28;20116;-67
2022/12/12 05:36:54;;;;;;;26.08;14.50;;;1.50;99.90;;;;;;5073139;28;20471;-67
2022/12/12 05:39:19;;;;;;;31.08;15.20;;;1.30;99.90;;;;;;5073378;28;20044;-67
2022/12/12 05:41:45;;;;;;;25.40;13.98;;;1.30;99.90;;;;;;5073510;28;20132;-68
2022/12/12 05:44:10;;;;;;;27.95;14.70;;;1.30;99.90;;;;;;5073548;28;20075;-67
2022/12/12 05:46:36;;;;;;;25.40;14.05;;;1.30;99.90;;;;;;5055536;28;20036;-67
2022/12/12 05:49:01;;;;;;;28.15;15.25;;;1.30;99.90;;;;;;5073653;28;20036;-67
2022/12/12 05:51:27;;;;;;;29.08;15.18;;;1.40;99.90;;;;;;5055620;28;20127;-67
2022/12/12 05:53:53;;;;;;;27.08;14.57;;;1.40;99.90;;;;;;5072990;28;20521;-67
2022/12/12 05:56:18;;;;;;;25.23;15.05;;;1.40;99.90;;;;;;5073098;28;20490;-67
2022/12/12 05:58:44;;;;;;;25.48;14.07;;;1.40;99.90;;;;;;5055584;28;20586;-67
2022/12/12 06:01:09;;;;;;;23.52;13.00;;;1.40;99.90;;;;;;5073351;28;20052;-67
2022/12/12 06:03:35;;;;;;;28.83;14.38;;;1.40;99.90;;;;;;5054767;28;20555;-67
2022/12/12 06:06:01;;;;;;;27.25;13.82;;;1.40;99.90;;;;;;5073117;28;20174;-69
2022/12/12 06:08:27;;;;;;;26.70;14.20;;;1.40;99.90;;;;;;5073028;28;20078;-67
2022/12/12 06:10:53;;;;;;;24.02;13.15;;;1.40;99.90;;;;;;5073009;28;20048;-67
2022/12/12 06:13:18;;;;;;;24.10;13.50;;;1.30;99.90;;;;;;5072183;28;20045;-67
2022/12/12 06:15:44;;;;;;;27.63;13.70;;;1.30;99.90;;;;;;5054519;28;20131;-67
2022/12/12 06:18:11;;;;;;;29.17;14.52;;;1.40;99.90;;;;;;5072825;28;20048;-67
2022/12/12 06:20:37;;;;;;;29.30;14.80;;;1.30;99.90;;;;;;5072502;28;20506;-67
2022/12/12 06:23:03;;;;;;;30.13;15.00;;;1.30;99.90;;;;;;5054717;28;20072;-67
2022/12/12 06:25:28;;;;;;;26.98;14.32;;;1.40;99.90;;;;;;5072443;28;20071;-67
2022/12/12 06:27:54;;;;;;;30.63;15.73;;;1.30;99.90;;;;;;5054655;28;20178;-67
2022/12/12 06:30:19;;;;;;;27.88;15.20;;;1.20;99.90;;;;;;5054856;28;20080;-67
2022/12/12 06:32:45;;;;;;;27.40;14.88;;;1.20;99.90;;;;;;5022823;28;20052;-68
2022/12/12 06:35:11;;;;;;;29.80;14.20;;;1.40;99.90;;;;;;5014693;28;20049;-67
2022/12/12 06:37:38;;;;;;;31.95;15.82;;;1.20;99.90;;;;;;5014977;28;20052;-67
2022/12/12 06:40:04;;;;;;;27.17;13.60;;;1.30;99.90;;;;;;5014600;28;20049;-67
2022/12/12 06:42:29;;;;;;;26.23;14.40;;;1.20;99.90;;;;;;5014129;28;20041;-67
2022/12/12 06:44:55;;;;;;;27.08;14.13;;;1.30;99.90;;;;;;5023453;28;20030;-67
2022/12/12 06:47:20;;;;;;;29.67;15.40;;;1.40;99.90;;;;;;5049139;28;20040;-67
2022/12/12 06:49:46;;;;;;;25.60;14.32;;;1.40;99.90;;;;;;5034251;28;20111;-69
2022/12/12 06:52:12;;;;;;;25.20;13.73;;;1.40;99.90;;;;;;5034259;28;20120;-67
2022/12/12 06:54:37;;;;;;;27.73;14.90;;;1.40;99.90;;;;;;5051389;28;20036;-72
2022/12/12 06:57:03;;;;;;;26.60;14.07;;;1.30;99.90;;;;;;5034339;28;20080;-72
2022/12/12 06:59:29;;;;;;;26.15;14.32;;;1.20;99.90;;;;;;5034539;28;20041;-71
2022/12/12 07:01:55;;;;;;;26.70;14.80;;;1.20;99.90;;;;;;5033948;28;20045;-71
2022/12/12 07:04:21;;;;;;;25.65;14.02;;;1.30;99.90;;;;;;5033917;28;20507;-71
2022/12/12 07:06:46;;;;;;;28.10;14.75;;;1.10;99.90;;;;;;5016460;28;20033;-71
2022/12/12 07:09:12;;;;;;;27.70;14.98;;;1.10;99.90;;;;;;5033821;28;20072;-71
2022/12/12 07:11:38;;;;;;;26.58;14.07;;;1.10;99.90;;;;;;5017468;28;20565;-71
2022/12/12 07:14:06;;;;;;;26.75;14.60;;;1.20;99.90;;;;;;5033934;28;20407;-71
2022/12/12 07:16:32;;;;;;;28.80;15.95;;;1.20;99.90;;;;;;5034105;28;20048;-71
2022/12/12 07:18:57;;;;;;;26.38;14.38;;;1.20;99.90;;;;;;5034156;28;20049;-72
2022/12/12 07:21:23;;;;;;;29.77;15.30;;;1.30;99.90;;;;;;5033919;28;20475;-72
2022/12/12 07:23:48;;;;;;;27.73;14.63;;;1.30;99.90;;;;;;5033473;28;20041;-72
2022/12/12 07:26:17;;;;;;;29.02;15.65;;;1.20;99.90;;;;;;5033777;28;20087;-72
2022/12/12 07:28:43;;;;;;;29.35;15.68;;;1.20;99.90;;;;;;5033871;28;20037;-72
2022/12/12 07:31:11;;;;;;;25.50;13.90;;;1.10;99.90;;;;;;5034016;28;20044;-72
2022/12/12 07:33:38;;;;;;;33.38;14.70;;;1.10;99.90;;;;;;5033403;28;20049;-72
2022/12/12 07:36:04;;;;;;;29.08;14.48;;;1.00;99.90;;;;;;5033797;28;20498;-72
2022/12/12 07:38:30;;;;;;;26.90;14.52;;;1.00;99.90;;;;;;5017471;28;20450;-72
2022/12/12 07:41:05;;;;;;;27.45;13.93;;;1.00;99.90;;;;;;5033741;28;20407;-72
2022/12/12 07:43:30;;;;;;;28.63;14.50;;;1.00;99.90;;;;;;5033499;28;20041;-72
2022/12/12 07:45:56;;;;;;;26.88;13.65;;;1.00;99.90;;;;;;5033509;28;20047;-72
2022/12/12 07:48:22;;;;;;;26.58;14.40;;;1.00;99.90;;;;;;5033820;28;20086;-72
2022/12/12 07:50:47;;;;;;;29.17;14.95;;;1.00;99.90;;;;;;5033443;28;20141;-72
2022/12/12 07:53:13;;;;;;;27.00;14.07;;;1.10;99.90;;;;;;5033521;28;20094;-72
2022/12/12 07:55:39;;;;;;;26.27;15.60;;;1.00;99.90;;;;;;5033546;28;20051;-72
2022/12/12 07:58:05;;;;;;;21.83;12.98;;;1.00;99.90;;;;;;5033459;28;20090;-72
2022/12/12 08:00:30;;;;;;;27.38;13.68;;;1.00;99.90;;;;;;5033391;28;20049;-72
2022/12/12 08:02:56;;;;;;;26.02;13.63;;;1.10;99.90;;;;;;5033018;28;20052;-72
2022/12/12 08:05:21;;;;;;;25.63;13.52;;;1.10;99.90;;;;;;5017072;28;20044;-73
2022/12/12 08:07:47;;;;;;;23.42;12.73;;;1.20;99.90;;;;;;5033541;28;20041;-72
2022/12/12 08:10:13;;;;;;;29.25;13.48;;;1.20;99.90;;;;;;5033626;28;20045;-74
2022/12/12 08:12:39;;;;;;;25.45;12.82;;;1.30;99.90;;;;;;5033653;28;20068;-72
2022/12/12 08:15:05;;;;;;;24.08;12.82;;;1.20;99.90;;;;;;5033161;28;20146;-72
2022/12/12 08:17:31;;;;;;;21.25;12.38;;;1.20;99.90;;;;;;5035196;28;20048;-72
2022/12/12 08:19:56;;;;;;;26.35;14.25;;;1.40;99.90;;;;;;5020373;28;20178;-72
2022/12/12 08:22:22;;;;;;;26.75;13.18;;;1.10;99.90;;;;;;5036672;28;20383;-72
2022/12/12 08:24:48;;;;;;;25.05;13.05;;;1.20;99.90;;;;;;5036976;28;20044;-72
2022/12/12 08:27:14;;;;;;;25.35;14.07;;;1.30;99.90;;;;;;5036957;28;20039;-72
2022/12/12 08:29:40;;;;;;;28.73;14.35;;;1.10;99.90;;;;;;5037174;28;20041;-72
2022/12/12 08:32:06;;;;;;;28.63;14.13;;;1.30;99.90;;;;;;5020409;28;20091;-72
2022/12/12 08:34:31;;;;;;;25.85;13.80;;;1.40;99.90;;;;;;5019930;28;20033;-72
2022/12/12 08:36:58;;;;;;;26.73;13.70;;;1.30;99.90;;;;;;5036822;28;20060;-72
2022/12/12 08:39:24;;;;;;;28.05;14.32;;;1.30;99.90;;;;;;5020434;28;20040;-72
2022/12/12 08:41:49;;;;;;;27.45;14.07;;;1.30;99.90;;;;;;5036621;28;20048;-72
2022/12/12 08:44:18;;;;;;;28.20;14.95;;;1.40;99.90;;;;;;5020296;28;20025;-72
2022/12/12 08:46:44;;;;;;;25.85;14.60;;;1.40;99.90;;;;;;5036477;28;20494;-72
2022/12/12 08:49:10;;;;;;;26.92;13.52;;;1.30;99.90;;;;;;5036649;28;20091;-71
2022/12/12 08:51:40;;;;;;;26.52;14.30;;;1.40;99.90;;;;;;5036696;28;20517;-71
2022/12/12 08:54:06;;;;;;;23.88;12.27;;;1.40;99.90;;;;;;5036327;28;20048;-71
2022/12/12 08:56:32;;;;;;;25.63;13.52;;;1.40;99.90;;;;;;5035917;28;20045;-71
2022/12/12 08:58:57;;;;;;;24.02;13.23;;;1.60;99.90;;;;;;5036471;28;20059;-71
2022/12/12 09:01:25;;;;;;;27.92;14.38;;;1.50;99.90;;;;;;5036285;28;20037;-72
2022/12/12 09:03:52;;;;;;;26.88;13.60;;;1.60;99.90;;;;;;5035885;28;20044;-72
2022/12/12 09:06:18;;;;;;;29.35;14.40;;;1.60;99.90;;;;;;5036248;28;20095;-72
2022/12/12 09:08:44;;;;;;;26.25;13.55;;;1.70;99.90;;;;;;5036271;28;20044;-74
2022/12/12 09:11:11;;;;;;;27.65;13.85;;;1.70;99.90;;;;;;5019705;28;20132;-72
2022/12/12 09:13:37;;;;;;;23.80;13.07;;;1.70;99.90;;;;;;5035739;28;20124;-72
2022/12/12 09:16:04;;;;;;;23.85;13.10;;;1.70;99.90;;;;;;5036114;28;20047;-72
2022/12/12 09:18:29;;;;;;;25.50;12.82;;;1.70;99.90;;;;;;5035957;28;20080;-72
2022/12/12 09:20:57;;;;;;;26.17;14.23;;;1.70;99.90;;;;;;5036121;28;20076;-72
2022/12/12 09:23:23;;;;;;;23.27;13.95;;;1.80;99.90;;;;;;5035512;28;20091;-72
2022/12/12 09:25:49;;;;;;;22.77;12.85;;;1.70;99.90;;;;;;5019261;28;20041;-72
2022/12/12 09:28:16;;;;;;;23.92;13.88;;;1.80;99.90;;;;;;5035641;28;20048;-72
2022/12/12 09:30:43;;;;;;;28.00;14.23;;;1.70;99.90;;;;;;5035855;28;20047;-72
2022/12/12 09:33:09;;;;;;;23.83;12.95;;;1.80;99.90;;;;;;5035570;28;20037;-72
2022/12/12 09:35:35;;;;;;;24.30;13.32;;;1.70;99.90;;;;;;5035672;28;20080;-72
2022/12/12 09:38:01;;;;;;;26.00;13.27;;;1.70;99.90;;;;;;5035717;28;20083;-74
2022/12/12 09:40:30;;;;;;;23.42;13.45;;;1.80;99.90;;;;;;5019300;28;20048;-72
2022/12/12 09:42:56;;;;;;;23.85;13.07;;;1.80;99.90;;;;;;5019206;28;20041;-73
2022/12/12 09:45:22;;;;;;;25.35;12.95;;;1.90;99.90;;;;;;5035671;28;20048;-73
2022/12/12 09:47:52;;;;;;;21.60;12.57;;;1.80;99.90;;;;;;5035852;28;20033;-73
2022/12/12 09:50:32;;;;;;;23.65;14.05;;;1.90;99.90;;;;;;5019042;28;20037;-73
2022/12/12 09:53:05;;;;;;;26.38;13.82;;;2.00;99.90;;;;;;5018677;28;20040;-73
2022/12/12 09:55:48;;;;;;;23.63;13.02;;;1.90;99.90;;;;;;5035399;28;20542;-72
2022/12/12 09:58:21;;;;;;;24.65;12.95;;;2.00;99.90;;;;;;5035430;28;20041;-73
2022/12/12 10:00:54;;;;;;;23.95;12.60;;;2.00;99.90;;;;;;5035465;28;20051;-73
2022/12/12 10:03:27;;;;;;;;;;;2.00;99.90;;;;;;5035827;28;20041;-72
2022/12/12 10:06:03;;;;;;;21.15;11.45;;;2.00;99.90;;;;;;5035249;28;20003;-73
2022/12/12 10:08:46;;;;;;;23.35;13.63;;;2.00;99.90;;;;;;5035133;28;20066;-72
2022/12/12 10:14:11;;;;;;;24.55;13.77;;;2.00;99.90;;;;;;5034815;28;20044;-73
2022/12/12 10:16:38;;;;;;;22.30;13.93;;;2.00;99.90;;;;;;5018481;28;20048;-73
2022/12/12 10:19:16;;;;;;;24.65;14.52;;;2.00;99.90;;;;;;5035328;28;20441;-73
2022/12/12 10:21:41;;;;;;;24.98;13.98;;;2.10;99.90;;;;;;5034950;28;20072;-73
2022/12/12 10:24:49;;;;;;;27.52;15.23;;;2.00;99.90;;;;;;5034463;28;20072;-73
2022/12/12 10:27:15;;;;;;;26.33;14.30;;;2.10;99.90;;;;;;5079526;23;20267;-70
2022/12/12 10:29:47;;;;;;;22.83;13.77;;;2.20;99.90;;;;;;5073891;28;20468;-69
2022/12/12 10:32:43;;;;;;;22.48;13.63;;;2.20;99.90;;;;;;5092204;28;20040;-69
2022/12/12 10:35:52;;;;;;;27.45;14.20;;;2.30;99.90;;;;;;5091414;28;20432;-69
2022/12/12 10:38:50;;;;;;;25.52;14.65;;;2.20;99.90;;;;;;5071642;28;20130;-69
2022/12/12 10:41:45;;;;;;;31.17;15.50;;;2.20;99.90;;;;;;5091097;28;20040;-69
2022/12/12 10:44:31;;;;;;;26.55;14.93;;;2.10;99.90;;;;;;5091556;28;20401;-70
2022/12/12 10:47:05;;;;;;;30.23;17.48;;;2.20;99.90;;;;;;5080398;28;20055;-69
2022/12/12 10:49:31;;;;;;;28.55;16.23;;;2.10;99.90;;;;;;5091475;28;20077;-69
2022/12/12 10:52:01;;;;;;;30.10;16.20;;;2.10;99.90;;;;;;5092717;28;20084;-69
2022/12/12 10:54:30;;;;;;;30.38;17.05;;;2.10;99.90;;;;;;5090866;28;20069;-69
2022/12/12 10:57:18;;;;;;;34.03;18.30;;;2.10;99.90;;;;;;5092627;28;20126;-69
2022/12/12 10:59:47;;;;;;;35.78;17.55;;;2.10;99.90;;;;;;5092708;28;20036;-69
2022/12/12 11:02:39;;;;;;;35.58;20.80;;;2.10;99.90;;;;;;5092432;28;20044;-68
2022/12/12 11:05:05;;;;;;;32.38;16.83;;;2.00;99.90;;;;;;5092679;28;20032;-69
2022/12/12 11:07:39;;;;;;;34.35;19.63;;;2.00;99.90;;;;;;5092154;28;20573;-69
2022/12/12 11:10:13;;;;;;;32.70;18.15;;;1.90;99.90;;;;;;5092649;28;20051;-69
2022/12/12 11:12:38;;;;;;;34.55;18.60;;;1.90;99.90;;;;;;5091973;28;20447;-69
2022/12/12 11:15:14;;;;;;;36.17;18.58;;;1.90;99.90;;;;;;5092323;28;20089;-68
2022/12/12 11:17:39;;;;;;;38.22;18.65;;;1.90;99.90;;;;;;5090987;28;20044;-68
2022/12/12 11:20:08;;;;;;;37.08;20.40;;;1.90;99.90;;;;;;5092392;28;20040;-69
2022/12/12 11:22:37;;;;;;;34.67;18.17;;;1.90;99.90;;;;;;5091658;28;20508;-69
2022/12/12 11:25:04;;;;;;;35.83;18.77;;;2.00;99.90;;;;;;5089150;28;20040;-69
2022/12/12 11:27:48;;;;;;;32.83;18.98;;;2.00;99.90;;;;;;5089617;28;20123;-68
2022/12/12 11:30:37;;;;;;;40.30;19.73;;;2.00;99.90;;;;;;5081374;28;20097;-69
2022/12/12 11:33:05;;;;;;;37.55;19.90;;;2.10;99.90;;;;;;5091036;28;20044;-68
2022/12/12 11:35:37;;;;;;;34.03;18.88;;;2.00;99.90;;;;;;5091390;28;20032;-69
2022/12/12 11:38:07;;;;;;;30.98;18.95;;;2.10;99.90;;;;;;5090065;28;20119;-69
2022/12/12 11:40:37;;;;;;;35.58;18.45;;;2.00;99.90;;;;;;5090141;28;20085;-68
2022/12/12 11:43:26;;;;;;;37.83;16.58;;;2.00;99.90;;;;;;5091631;28;20431;-69
2022/12/12 11:46:06;;;;;;;35.47;18.10;;;2.10;99.90;;;;;;5090187;28;20390;-69
2022/12/12 11:48:36;;;;;;;35.70;19.00;;;2.10;99.90;;;;;;5090271;28;20048;-69
2022/12/12 11:51:02;;;;;;;36.58;19.15;;;2.20;99.90;;;;;;5090875;28;20046;-69
2022/12/12 11:53:28;;;;;;;31.98;18.33;;;2.20;99.90;;;;;;5090022;28;20040;-69
2022/12/12 11:56:08;;;;;;;36.15;18.05;;;2.20;99.90;;;;;;5090513;28;20374;-68
2022/12/12 11:59:05;;;;;;;36.05;20.08;;;2.20;99.90;;;;;;5090552;28;20047;-69
2022/12/12 12:01:50;;;;;;;35.10;18.30;;;2.20;99.90;;;;;;5085291;28;20052;-69
2022/12/12 12:04:49;;;;;;;35.47;19.15;;;2.10;99.90;;;;;;5091596;28;20032;-68
2022/12/12 12:07:47;;;;;;;34.17;17.80;;;2.10;99.90;;;;;;5090391;28;20489;-71
2022/12/12 12:10:22;;;;;;;35.40;19.00;;;2.20;99.90;;;;;;5091716;28;20161;-69
2022/12/12 12:13:03;;;;;;;36.00;18.55;;;2.20;99.90;;;;;;5089869;28;20044;-69
2022/12/12 12:15:51;;;;;;;37.75;18.42;;;2.10;99.90;;;;;;5090369;28;20493;-70
2022/12/12 12:18:31;;;;;;;37.60;19.70;;;2.10;99.90;;;;;;5090833;28;20515;-70
2022/12/12 12:21:24;;;;;;;33.63;18.45;;;2.10;99.90;;;;;;5091358;28;20108;-70
2022/12/12 12:24:07;;;;;;;35.05;17.77;;;2.10;99.90;;;;;;5090382;28;20086;-70
2022/12/12 12:26:52;;;;;;;37.37;19.30;;;2.10;99.90;;;;;;5091250;28;20074;-71
2022/12/12 12:29:45;;;;;;;33.60;18.85;;;2.30;99.90;;;;;;5073583;28;20532;-70
2022/12/12 12:32:25;;;;;;;34.70;18.17;;;2.30;99.90;;;;;;5090437;28;20067;-70
2022/12/12 12:34:55;;;;;;;36.38;18.13;;;2.40;99.90;;;;;;5091696;28;20042;-70
2022/12/12 12:37:44;;;;;;;33.80;17.75;;;2.50;99.90;;;;;;5091411;28;20044;-70
2022/12/12 12:40:19;;;;;;;31.40;18.92;;;2.50;99.90;;;;;;5089855;28;20048;-70
2022/12/12 12:43:14;;;;;;;34.33;17.63;;;2.50;99.90;;;;;;5089551;28;20093;-71
2022/12/12 12:45:56;;;;;;;30.67;17.42;;;2.60;99.90;;;;;;5090075;28;20402;-71
2022/12/12 12:48:33;;;;;;;31.83;16.42;;;2.60;99.90;;;;;;5091346;28;20032;-70
2022/12/12 12:51:23;;;;;;;32.05;17.63;;;2.60;99.90;;;;;;5089745;28;20063;-71
2022/12/12 12:53:54;;;;;;;35.80;18.65;;;2.70;99.90;;;;;;5089868;28;20063;-71
2022/12/12 12:56:29;;;;;;;30.83;16.80;;;2.60;99.90;;;;;;5072748;28;20130;-70
2022/12/12 12:59:02;;;;;;;32.20;18.10;;;2.70;99.90;;;;;;5089683;28;20044;-70
2022/12/12 13:01:34;;;;;;;29.02;17.27;;;2.70;99.90;;;;;;5089482;28;20210;-71
2022/12/12 13:04:23;;;;;;;30.50;18.25;;;2.70;99.90;;;;;;5090256;28;20089;-71
2022/12/12 13:07:01;;;;;;;30.15;16.75;;;2.80;99.90;;;;;;5076156;28;20062;-71
2022/12/12 13:09:47;;;;;;;31.45;16.67;;;2.70;99.90;;;;;;5093475;28;20161;-71
2022/12/12 13:12:31;;;;;;;28.67;16.40;;;2.80;99.90;;;;;;5093320;28;20048;-72
2022/12/12 13:15:23;;;;;;;33.97;17.63;;;2.80;99.90;;;;;;5093341;28;20081;-71
2022/12/12 13:18:03;;;;;;;29.98;16.73;;;2.80;99.90;;;;;;5093356;28;20089;-71